createdAt,value
2018-09-05T00:00:50.725Z,15.21
2018-09-05T00:03:20.240Z,15.17
2018-09-05T00:05:49.533Z,15.15
2018-09-05T00:08:18.958Z,15.14
2018-09-05T00:10:50.453Z,15.13
2018-09-05T00:13:19.590Z,15.09
2018-09-05T00:15:48.991Z,15.03
2018-09-05T00:18:20.454Z,15.02
2018-09-05T00:20:49.689Z,15.11
2018-09-05T00:23:19.008Z,15.13
2018-09-05T00:25:48.361Z,15.09
2018-09-05T00:28:17.671Z,15.08
2018-09-05T00:30:46.994Z,15.07
2018-09-05T00:33:16.409Z,15.04
2018-09-05T00:35:45.733Z,15.11
2018-09-05T00:38:15.089Z,15.24
2018-09-05T00:40:44.437Z,15.33
2018-09-05T00:43:13.897Z,15.39
2018-09-05T00:45:43.260Z,15.40
2018-09-05T00:48:12.496Z,15.34
2018-09-05T00:50:41.851Z,15.27
2018-09-05T00:53:11.149Z,15.14
2018-09-05T00:55:42.752Z,15.01
2018-09-05T00:58:12.128Z,14.93
2018-09-05T01:00:41.670Z,14.87
2018-09-05T01:03:10.946Z,14.81
2018-09-05T01:05:40.449Z,14.74
2018-09-05T01:08:09.670Z,14.70
2018-09-05T01:10:38.914Z,14.66
2018-09-05T01:13:08.102Z,14.62
2018-09-05T01:15:37.417Z,14.66
2018-09-05T01:18:06.769Z,14.66
2018-09-05T01:20:36.094Z,14.62
2018-09-05T01:23:05.446Z,14.63
2018-09-05T01:25:34.657Z,14.63
2018-09-05T01:28:03.920Z,14.63
2018-09-05T01:30:33.038Z,14.60
2018-09-05T01:33:02.365Z,14.56
2018-09-05T01:35:31.514Z,14.51
2018-09-05T01:38:00.677Z,14.48
2018-09-05T01:40:29.809Z,14.41
2018-09-05T01:42:59.013Z,14.35
2018-09-05T01:45:28.278Z,14.32
2018-09-05T01:47:57.522Z,14.33
2018-09-05T01:50:31.694Z,14.30
2018-09-05T01:53:01.126Z,14.25
2018-09-05T01:55:30.369Z,14.22
2018-09-05T01:57:59.627Z,14.18
2018-09-05T02:00:33.694Z,14.15
2018-09-05T02:03:03.642Z,14.15
2018-09-05T02:05:32.878Z,14.15
2018-09-05T02:08:03.115Z,14.12
2018-09-05T02:10:33.055Z,14.09
2018-09-05T02:13:02.900Z,14.03
2018-09-05T02:15:32.022Z,14.08
2018-09-05T02:18:01.487Z,14.13
2018-09-05T02:20:30.727Z,14.09
2018-09-05T02:22:59.995Z,13.98
2018-09-05T02:25:29.235Z,13.89
2018-09-05T02:27:58.562Z,13.83
2018-09-05T02:30:27.673Z,13.79
2018-09-05T02:32:56.870Z,13.80
2018-09-05T02:35:26.038Z,13.78
2018-09-05T02:37:55.450Z,13.78
2018-09-05T02:40:24.726Z,13.78
2018-09-05T02:42:53.974Z,13.74
2018-09-05T02:45:23.334Z,13.70
2018-09-05T02:47:52.518Z,13.67
2018-09-05T02:50:21.760Z,13.61
2018-09-05T02:52:50.840Z,13.61
2018-09-05T02:55:25.142Z,13.65
2018-09-05T02:57:54.316Z,13.67
2018-09-05T03:00:23.552Z,13.64
2018-09-05T03:02:52.792Z,13.63
2018-09-05T03:05:22.211Z,13.60
2018-09-05T03:07:51.454Z,13.56
2018-09-05T03:10:20.714Z,13.50
2018-09-05T03:12:49.826Z,13.47
2018-09-05T03:15:19.138Z,13.45
2018-09-05T03:17:48.345Z,13.44
2018-09-05T03:20:17.570Z,13.43
2018-09-05T03:22:46.797Z,13.41
2018-09-05T03:25:16.174Z,13.36
2018-09-05T03:27:45.422Z,13.32
2018-09-05T03:30:14.675Z,13.32
2018-09-05T03:32:43.974Z,13.36
2018-09-05T03:35:13.193Z,13.40
2018-09-05T03:37:42.503Z,13.42
2018-09-05T03:40:11.848Z,13.42
2018-09-05T03:42:40.951Z,13.40
2018-09-05T03:45:10.213Z,13.38
2018-09-05T03:47:39.433Z,13.31
2018-09-05T03:50:09.343Z,13.26
2018-09-05T03:52:38.533Z,13.24
2018-09-05T03:55:07.934Z,13.25
2018-09-05T03:57:38.225Z,13.21
2018-09-05T04:00:08.189Z,13.17
2018-09-05T04:02:37.499Z,13.17
2018-09-05T04:05:06.775Z,13.21
2018-09-05T04:07:36.044Z,13.24
2018-09-05T04:10:05.556Z,13.24
2018-09-05T04:12:38.749Z,13.19
2018-09-05T04:15:08.157Z,13.17
2018-09-05T04:17:37.561Z,13.15
2018-09-05T04:20:07.819Z,13.15
2018-09-05T04:22:36.925Z,13.14
2018-09-05T04:25:06.128Z,13.09
2018-09-05T04:27:35.442Z,13.14
2018-09-05T04:30:04.901Z,13.25
2018-09-05T04:32:34.149Z,13.29
2018-09-05T04:35:03.549Z,13.30
2018-09-05T04:37:33.706Z,13.27
2018-09-05T04:40:02.901Z,13.26
2018-09-05T04:42:32.398Z,13.18
2018-09-05T04:45:01.738Z,13.12
2018-09-05T04:47:31.082Z,13.02
2018-09-05T04:50:00.396Z,13.00
2018-09-05T04:52:29.726Z,13.05
2018-09-05T04:54:59.078Z,13.08
2018-09-05T04:57:28.394Z,13.10
2018-09-05T04:59:57.595Z,13.13
2018-09-05T05:02:26.958Z,13.21
2018-09-05T05:04:56.434Z,13.30
2018-09-05T05:07:25.704Z,13.32
2018-09-05T05:09:55.174Z,13.30
2018-09-05T05:12:24.498Z,13.30
2018-09-05T05:14:53.874Z,13.28
2018-09-05T05:17:23.195Z,13.27
2018-09-05T05:19:52.446Z,13.27
2018-09-05T05:22:21.604Z,13.31
2018-09-05T05:24:50.763Z,13.37
2018-09-05T05:27:20.092Z,13.42
2018-09-05T05:29:49.256Z,13.45
2018-09-05T05:32:18.559Z,13.49
2018-09-05T05:34:47.886Z,13.57
2018-09-05T05:37:17.194Z,13.70
2018-09-05T05:39:46.459Z,13.78
2018-09-05T05:42:15.786Z,13.88
2018-09-05T05:44:45.159Z,13.97
2018-09-05T05:47:14.506Z,14.05
2018-09-05T05:49:43.754Z,14.12
2018-09-05T05:52:13.075Z,14.20
2018-09-05T05:54:42.251Z,14.28
2018-09-05T05:57:11.600Z,14.35
2018-09-05T05:59:40.895Z,14.42
2018-09-05T06:02:10.239Z,14.51
2018-09-05T06:04:39.546Z,14.60
2018-09-05T06:07:08.934Z,14.69
2018-09-05T06:09:39.099Z,14.79
2018-09-05T06:12:08.507Z,14.88
2018-09-05T06:14:37.828Z,15.01
2018-09-05T06:17:07.191Z,15.14
2018-09-05T06:19:37.315Z,15.27
2018-09-05T06:22:06.658Z,15.39
2018-09-05T06:24:36.157Z,15.54
2018-09-05T06:27:05.534Z,15.69
2018-09-05T06:29:34.821Z,15.83
2018-09-05T06:32:04.206Z,15.99
2018-09-05T06:34:33.400Z,16.12
2018-09-05T06:37:02.739Z,16.24
2018-09-05T06:39:32.043Z,16.35
2018-09-05T06:42:01.843Z,16.41
2018-09-05T06:44:31.072Z,16.48
2018-09-05T06:47:00.436Z,16.54
2018-09-05T06:49:29.575Z,16.59
2018-09-05T06:51:58.867Z,16.65
2018-09-05T06:54:28.165Z,16.73
2018-09-05T06:56:57.459Z,16.78
2018-09-05T06:59:26.741Z,16.84
2018-09-05T07:01:56.053Z,16.89
2018-09-05T07:04:25.288Z,16.92
2018-09-05T07:06:54.501Z,16.98
2018-09-05T07:09:23.715Z,17.03
2018-09-05T07:11:53.055Z,17.12
2018-09-05T07:14:22.273Z,17.21
2018-09-05T07:16:51.676Z,17.28
2018-09-05T07:19:21.081Z,17.35
2018-09-05T07:21:50.485Z,17.45
2018-09-05T07:24:19.727Z,17.53
2018-09-05T07:26:48.967Z,17.62
2018-09-05T07:29:18.233Z,17.67
2018-09-05T07:31:47.487Z,17.69
2018-09-05T07:34:16.941Z,17.73
2018-09-05T07:36:46.237Z,17.78
2018-09-05T07:39:15.337Z,17.84
2018-09-05T07:41:44.601Z,17.89
2018-09-05T07:44:13.790Z,17.92
2018-09-05T07:46:43.030Z,17.98
2018-09-05T07:49:13.012Z,18.05
2018-09-05T07:51:42.223Z,18.10
2018-09-05T07:54:11.435Z,18.13
2018-09-05T07:56:40.651Z,18.19
2018-09-05T07:59:09.939Z,18.25
2018-09-05T08:01:39.197Z,18.34
2018-09-05T08:04:08.719Z,18.47
2018-09-05T08:06:38.000Z,18.62
2018-09-05T08:09:10.576Z,18.75
2018-09-05T08:11:39.952Z,18.86
2018-09-05T08:14:09.210Z,18.89
2018-09-05T08:16:38.498Z,18.98
2018-09-05T08:19:07.987Z,19.06
2018-09-05T08:21:37.296Z,19.20
2018-09-05T08:24:06.755Z,19.23
2018-09-05T08:26:36.115Z,19.21
2018-09-05T08:29:05.523Z,19.26
2018-09-05T08:31:35.149Z,19.36
2018-09-05T08:34:04.526Z,19.49
2018-09-05T08:36:33.928Z,19.55
2018-09-05T08:39:03.626Z,19.59
2018-09-05T08:41:32.871Z,19.71
2018-09-05T08:44:02.280Z,19.84
2018-09-05T08:46:31.451Z,19.92
2018-09-05T08:49:00.775Z,19.98
2018-09-05T08:51:30.018Z,20.09
2018-09-05T08:53:59.250Z,20.10
2018-09-05T08:56:28.633Z,20.16
2018-09-05T08:58:57.940Z,20.24
2018-09-05T09:01:27.197Z,20.28
2018-09-05T09:03:56.521Z,20.28
2018-09-05T09:06:25.931Z,20.25
2018-09-05T09:08:55.285Z,20.36
2018-09-05T09:11:24.476Z,20.54
2018-09-05T09:13:53.730Z,20.72
2018-09-05T09:16:22.975Z,20.84
2018-09-05T09:18:52.274Z,20.83
2018-09-05T09:21:21.458Z,20.88
2018-09-05T09:23:50.799Z,21.04
2018-09-05T09:26:20.168Z,21.23
2018-09-05T09:28:49.422Z,21.38
2018-09-05T09:31:18.737Z,21.37
2018-09-05T09:33:48.066Z,21.48
2018-09-05T09:36:17.379Z,21.63
2018-09-05T09:38:46.638Z,21.72
2018-09-05T09:41:15.946Z,21.89
2018-09-05T09:43:45.266Z,21.97
2018-09-05T09:46:14.502Z,21.99
2018-09-05T09:48:44.019Z,22.09
2018-09-05T09:51:13.214Z,22.18
2018-09-05T09:53:42.615Z,22.16
2018-09-05T09:56:11.932Z,22.23
2018-09-05T09:58:42.287Z,22.46
2018-09-05T10:01:16.610Z,22.66
2018-09-05T10:03:50.884Z,22.73
2018-09-05T10:06:26.122Z,22.89
2018-09-05T10:09:00.694Z,23.02
2018-09-05T10:11:34.822Z,23.15
2018-09-05T10:14:09.348Z,23.29
2018-09-05T10:16:41.360Z,23.33
2018-09-05T10:19:12.109Z,23.36
2018-09-05T10:21:41.389Z,23.49
2018-09-05T10:24:10.594Z,23.65
2018-09-05T10:26:39.890Z,23.72
2018-09-05T10:29:09.334Z,23.76
2018-09-05T10:31:38.684Z,23.91
2018-09-05T10:34:08.635Z,24.04
2018-09-05T10:36:38.002Z,24.12
2018-09-05T10:39:09.551Z,24.29
2018-09-05T10:41:38.935Z,24.37
2018-09-05T10:44:08.975Z,24.46
2018-09-05T10:46:38.893Z,24.48
2018-09-05T10:49:08.726Z,24.59
2018-09-05T10:51:43.070Z,24.71
2018-09-05T10:54:12.639Z,24.82
2018-09-05T10:56:41.931Z,24.86
2018-09-05T10:59:11.222Z,24.98
2018-09-05T11:01:40.629Z,25.10
2018-09-05T11:04:10.472Z,25.23
2018-09-05T11:06:39.851Z,25.36
2018-09-05T11:09:12.999Z,25.46
2018-09-05T11:11:42.338Z,25.54
2018-09-05T11:14:11.926Z,25.61
2018-09-05T11:16:41.842Z,25.71
2018-09-05T11:19:11.192Z,25.86
2018-09-05T11:21:40.860Z,25.87
2018-09-05T11:24:10.318Z,25.90
2018-09-05T11:26:39.772Z,25.95
2018-09-05T11:29:09.114Z,26.12
2018-09-05T11:31:38.457Z,26.34
2018-09-05T11:34:07.869Z,26.49
2018-09-05T11:36:37.109Z,26.52
2018-09-05T11:39:11.098Z,26.57
2018-09-05T11:41:40.490Z,26.72
2018-09-05T11:44:09.830Z,26.84
2018-09-05T11:46:40.015Z,26.87
2018-09-05T11:49:09.852Z,26.86
2018-09-05T11:51:39.126Z,26.97
2018-09-05T11:54:09.022Z,27.05
2018-09-05T11:56:38.374Z,27.17
2018-09-05T11:59:08.323Z,27.32
2018-09-05T12:01:37.639Z,27.54
2018-09-05T12:04:06.827Z,27.71
2018-09-05T12:06:36.606Z,27.79
2018-09-05T12:09:09.515Z,27.81
2018-09-05T12:11:38.945Z,27.89
2018-09-05T12:14:08.892Z,27.97
2018-09-05T12:16:38.737Z,28.02
2018-09-05T12:19:08.592Z,28.05
2018-09-05T12:21:37.821Z,28.24
2018-09-05T12:24:07.009Z,28.52
2018-09-05T12:26:36.381Z,28.76
2018-09-05T12:29:09.815Z,28.99
2018-09-05T12:31:39.271Z,29.23
2018-09-05T12:34:08.643Z,29.46
2018-09-05T12:36:37.935Z,29.63
2018-09-05T12:39:10.475Z,29.95
2018-09-05T12:41:48.522Z,30.30
2018-09-05T12:44:17.830Z,30.51
2018-09-05T12:46:47.166Z,30.60
2018-09-05T12:49:16.427Z,30.83
2018-09-05T12:51:46.581Z,30.99
2018-09-05T12:54:15.827Z,31.19
2018-09-05T12:56:49.443Z,31.76
2018-09-05T12:59:18.864Z,32.31
2018-09-05T13:01:52.078Z,32.93
2018-09-05T13:04:21.348Z,33.02
2018-09-05T13:06:50.861Z,33.20
2018-09-05T13:09:20.574Z,33.53
2018-09-05T13:11:50.847Z,33.58
2018-09-05T13:14:20.144Z,33.62
2018-09-05T13:16:49.637Z,33.74
2018-09-05T13:19:18.950Z,33.95
2018-09-05T13:21:48.258Z,34.04
2018-09-05T13:24:20.377Z,34.21
2018-09-05T13:26:52.114Z,34.59
2018-09-05T13:29:21.781Z,34.94
2018-09-05T13:31:51.188Z,35.11
2018-09-05T13:34:20.549Z,35.16
2018-09-05T13:36:49.886Z,35.74
2018-09-05T13:39:19.126Z,36.03
2018-09-05T13:41:48.519Z,36.59
2018-09-05T13:44:17.855Z,37.93
2018-09-05T13:46:47.074Z,39.17
2018-09-05T13:49:16.346Z,40.09
2018-09-05T13:51:49.586Z,41.27
2018-09-05T13:54:18.899Z,41.39
2018-09-05T13:56:48.374Z,41.53
2018-09-05T13:59:26.936Z,41.50
2018-09-05T14:02:08.805Z,42.87
2018-09-05T14:04:51.331Z,44.13
2018-09-05T14:07:32.109Z,44.90
2018-09-05T14:10:23.436Z,44.78
2018-09-05T14:12:52.762Z,43.52
2018-09-05T14:15:22.053Z,42.45
2018-09-05T14:17:51.303Z,41.26
2018-09-05T14:20:20.742Z,40.41
2018-09-05T14:22:50.314Z,40.39
2018-09-05T14:25:19.710Z,41.40
2018-09-05T14:27:49.074Z,41.28
2018-09-05T14:30:18.386Z,40.18
2018-09-05T14:32:47.810Z,39.45
2018-09-05T14:35:17.126Z,38.81
2018-09-05T14:37:46.706Z,38.84
2018-09-05T14:40:16.086Z,39.75
2018-09-05T14:42:45.541Z,41.19
2018-09-05T14:45:14.846Z,41.98
2018-09-05T14:47:44.663Z,41.64
2018-09-05T14:50:14.061Z,41.26
2018-09-05T14:52:43.614Z,41.56
2018-09-05T14:55:13.457Z,41.95
2018-09-05T14:57:43.458Z,41.46
2018-09-05T15:00:13.849Z,40.01
2018-09-05T15:02:45.441Z,39.45
2018-09-05T15:05:14.742Z,39.95
2018-09-05T15:07:47.694Z,41.22
2018-09-05T15:10:17.378Z,42.60
2018-09-05T15:12:47.110Z,42.04
2018-09-05T15:15:17.313Z,40.54
2018-09-05T15:17:46.647Z,39.68
2018-09-05T15:20:15.969Z,38.98
2018-09-05T15:22:45.340Z,39.44
2018-09-05T15:25:14.793Z,41.24
2018-09-05T15:27:44.088Z,43.46
2018-09-05T15:30:13.355Z,44.52
2018-09-05T15:32:42.548Z,43.72
2018-09-05T15:35:11.935Z,41.82
2018-09-05T15:37:41.346Z,39.75
2018-09-05T15:40:10.746Z,38.37
2018-09-05T15:42:41.143Z,37.23
2018-09-05T15:45:10.635Z,36.54
2018-09-05T15:47:40.026Z,36.02
2018-09-05T15:50:09.606Z,35.58
2018-09-05T15:52:38.918Z,35.22
2018-09-05T15:55:08.399Z,35.10
2018-09-05T15:57:38.029Z,34.94
2018-09-05T16:00:07.549Z,34.45
2018-09-05T16:02:37.063Z,34.10
2018-09-05T16:05:06.650Z,33.47
2018-09-05T16:07:36.171Z,32.92
2018-09-05T16:10:05.517Z,32.52
2018-09-05T16:12:35.016Z,32.07
2018-09-05T16:15:04.617Z,31.67
2018-09-05T16:17:33.918Z,31.45
2018-09-05T16:20:03.794Z,31.14
2018-09-05T16:22:33.307Z,30.96
2018-09-05T16:25:02.794Z,31.43
2018-09-05T16:27:32.127Z,32.51
2018-09-05T16:30:01.494Z,33.81
2018-09-05T16:32:30.989Z,34.91
2018-09-05T16:35:00.435Z,35.23
2018-09-05T16:37:29.794Z,35.23
2018-09-05T16:39:59.213Z,35.28
2018-09-05T16:42:28.527Z,35.39
2018-09-05T16:44:58.065Z,35.46
2018-09-05T16:47:27.521Z,35.44
2018-09-05T16:49:57.022Z,35.37
2018-09-05T16:52:29.850Z,34.82
2018-09-05T16:54:59.839Z,34.16
2018-09-05T16:57:29.327Z,33.57
2018-09-05T16:59:58.775Z,32.95
2018-09-05T17:02:28.310Z,31.88
2018-09-05T17:04:57.658Z,30.86
2018-09-05T17:07:27.032Z,29.79
2018-09-05T17:09:56.402Z,28.66
2018-09-05T17:12:25.914Z,27.94
2018-09-05T17:14:55.270Z,27.48
2018-09-05T17:17:24.694Z,26.84
2018-09-05T17:19:54.174Z,26.13
2018-09-05T17:22:23.691Z,25.43
2018-09-05T17:24:53.162Z,24.82
2018-09-05T17:27:22.650Z,24.27
2018-09-05T17:29:52.146Z,23.75
2018-09-05T17:32:21.534Z,23.30
2018-09-05T17:34:50.842Z,22.88
2018-09-05T17:37:20.230Z,22.52
2018-09-05T17:39:49.668Z,22.21
2018-09-05T17:42:22.634Z,21.88
2018-09-05T17:44:52.013Z,21.58
2018-09-05T17:47:21.312Z,21.29
2018-09-05T17:49:50.691Z,21.03
2018-09-05T17:52:20.111Z,20.76
2018-09-05T17:54:49.716Z,20.50
2018-09-05T17:57:19.050Z,20.28
2018-09-05T17:59:48.472Z,20.06
2018-09-05T18:02:17.884Z,19.84
2018-09-05T18:04:47.320Z,19.61
2018-09-05T18:07:16.942Z,19.48
2018-09-05T18:09:46.406Z,19.39
2018-09-05T18:12:15.740Z,19.30
2018-09-05T18:14:45.144Z,19.21
2018-09-05T18:17:14.552Z,19.14
2018-09-05T18:19:43.846Z,19.01
2018-09-05T18:22:13.179Z,18.87
2018-09-05T18:24:42.619Z,18.75
2018-09-05T18:27:12.006Z,18.66
2018-09-05T18:29:41.464Z,18.58
2018-09-05T18:32:11.027Z,18.49
2018-09-05T18:34:40.359Z,18.49
2018-09-05T18:37:09.711Z,18.49
2018-09-05T18:39:40.019Z,18.43
2018-09-05T18:42:09.312Z,18.38
2018-09-05T18:44:38.747Z,18.34
2018-09-05T18:47:08.007Z,18.27
2018-09-05T18:49:37.469Z,18.18
2018-09-05T18:52:07.241Z,18.10
2018-09-05T18:54:36.684Z,18.05
2018-09-05T18:57:06.601Z,18.00
2018-09-05T18:59:36.063Z,17.96
2018-09-05T19:02:05.659Z,17.93
2018-09-05T19:04:35.823Z,17.93
2018-09-05T19:07:05.328Z,17.92
2018-09-05T19:09:34.778Z,17.92
2018-09-05T19:12:04.214Z,17.91
2018-09-05T19:14:34.637Z,17.88
2018-09-05T19:17:03.978Z,17.85
2018-09-05T19:19:33.279Z,17.83
2018-09-05T19:22:02.647Z,17.80
2018-09-05T19:24:33.123Z,17.76
2018-09-05T19:27:02.530Z,17.71
2018-09-05T19:29:32.031Z,17.70
2018-09-05T19:32:01.450Z,17.70
2018-09-05T19:34:30.896Z,17.68
2018-09-05T19:37:00.573Z,17.57
2018-09-05T19:39:29.952Z,17.47
2018-09-05T19:41:59.258Z,17.38
2018-09-05T19:44:28.778Z,17.29
2018-09-05T19:46:59.290Z,17.21
2018-09-05T19:49:28.975Z,17.12
2018-09-05T19:51:58.407Z,17.08
2018-09-05T19:54:27.764Z,17.08
2018-09-05T19:56:57.147Z,17.09
2018-09-05T19:59:26.626Z,17.11
2018-09-05T20:01:56.310Z,17.07
2018-09-05T20:04:25.770Z,17.00
2018-09-05T20:06:55.198Z,16.95
2018-09-05T20:09:24.600Z,16.87
2018-09-05T20:11:54.090Z,16.79
2018-09-05T20:14:23.453Z,16.72
2018-09-05T20:16:52.781Z,16.68
2018-09-05T20:19:22.120Z,16.65
2018-09-05T20:21:52.347Z,16.64
2018-09-05T20:24:28.845Z,16.61
2018-09-05T20:26:58.434Z,16.57
2018-09-05T20:29:28.090Z,16.51
2018-09-05T20:31:57.359Z,16.45
2018-09-05T20:34:26.778Z,16.41
2018-09-05T20:36:56.330Z,16.39
2018-09-05T20:39:25.774Z,16.36
2018-09-05T20:41:55.260Z,16.34
2018-09-05T20:44:24.621Z,16.29
2018-09-05T20:46:53.959Z,16.23
2018-09-05T20:49:23.287Z,16.17
2018-09-05T20:51:52.674Z,16.13
2018-09-05T20:54:29.345Z,16.09
2018-09-05T20:56:58.818Z,16.04
2018-09-05T20:59:28.283Z,16.00
2018-09-05T21:01:57.767Z,15.98
2018-09-05T21:04:27.201Z,15.94
2018-09-05T21:06:56.809Z,15.93
2018-09-05T21:09:26.174Z,15.91
2018-09-05T21:11:55.582Z,15.87
2018-09-05T21:14:25.242Z,15.81
2018-09-05T21:16:54.674Z,15.73
2018-09-05T21:19:24.042Z,15.66
2018-09-05T21:21:53.270Z,15.60
2018-09-05T21:24:22.650Z,15.58
2018-09-05T21:26:52.229Z,15.60
2018-09-05T21:29:21.743Z,15.64
2018-09-05T21:31:51.034Z,15.66
2018-09-05T21:34:20.402Z,15.71
2018-09-05T21:36:49.682Z,15.73
2018-09-05T21:39:19.158Z,15.78
2018-09-05T21:41:48.508Z,15.80
2018-09-05T21:44:17.922Z,15.77
2018-09-05T21:46:47.361Z,15.70
2018-09-05T21:49:16.694Z,15.64
2018-09-05T21:51:46.050Z,15.61
2018-09-05T21:54:15.482Z,15.55
2018-09-05T21:56:44.853Z,15.51
2018-09-05T21:59:14.293Z,15.50
2018-09-05T22:01:43.601Z,15.44
2018-09-05T22:04:13.053Z,15.42
2018-09-05T22:06:42.480Z,15.41
2018-09-05T22:09:12.570Z,15.38
2018-09-05T22:11:41.855Z,15.36
2018-09-05T22:14:11.270Z,15.33
2018-09-05T22:16:40.647Z,15.23
2018-09-05T22:19:10.062Z,15.16
2018-09-05T22:21:39.504Z,15.11
2018-09-05T22:24:09.019Z,15.03
2018-09-05T22:26:38.474Z,15.11
2018-09-05T22:29:07.940Z,15.11
2018-09-05T22:31:37.342Z,15.06
2018-09-05T22:34:06.652Z,15.12
2018-09-05T22:36:36.033Z,15.14
2018-09-05T22:39:06.214Z,15.08
2018-09-05T22:41:35.536Z,15.23
2018-09-05T22:44:15.672Z,15.21
2018-09-05T22:46:55.798Z,15.15
2018-09-05T22:49:54.738Z,15.12
2018-09-05T22:54:46.849Z,14.96
2018-09-05T22:57:39.218Z,14.75
2018-09-05T23:00:19.348Z,14.69
2018-09-05T23:02:58.335Z,14.58
2018-09-05T23:08:44.789Z,14.47
2018-09-05T23:12:22.510Z,14.26
2018-09-05T23:15:02.834Z,14.16
2018-09-05T23:17:43.026Z,14.18
2018-09-05T23:21:20.397Z,14.20
2018-09-05T23:24:00.697Z,14.17
2018-09-05T23:26:30.233Z,14.16
2018-09-05T23:28:59.626Z,14.24
2018-09-05T23:31:28.911Z,14.33
2018-09-05T23:33:58.293Z,14.38
2018-09-05T23:36:27.681Z,14.37
2018-09-05T23:38:56.973Z,14.44
2018-09-05T23:41:26.403Z,14.51
2018-09-05T23:43:55.833Z,14.57
2018-09-05T23:46:25.213Z,14.58
2018-09-05T23:48:54.509Z,14.56
2018-09-05T23:51:23.834Z,14.56
2018-09-05T23:53:53.106Z,14.59
2018-09-05T23:56:22.612Z,14.63
2018-09-05T23:58:51.983Z,14.69
